sensor_id;sensor_type;location;lat;lon;timestamp;temperature;humidity
7030;DHT22;3556;53.500;10.176;2023-03-01T00:01:12;-2.90;99.90
7030;DHT22;3556;53.500;10.176;2023-03-01T00:03:38;-3.00;99.90
7030;DHT22;3556;53.500;10.176;2023-03-01T00:06:05;-3.00;99.90
7030;DHT22;3556;53.500;10.176;2023-03-01T00:08:31;-3.00;99.90
7030;DHT22;3556;53.500;10.176;2023-03-01T00:11:10;-3.00;99.90
7030;DHT22;3556;53.500;10.176;2023-03-01T00:13:37;-3.00;99.90
7030;DHT22;3556;53.500;10.176;2023-03-01T00:16:04;-3.10;99.90
7030;DHT22;3556;53.500;10.176;2023-03-01T00:18:29;-3.00;99.90
7030;DHT22;3556;53.500;10.176;2023-03-01T00:20:56;-3.10;99.90
7030;DHT22;3556;53.500;10.176;2023-03-01T00:23:22;-3.10;99.90
7030;DHT22;3556;53.500;10.176;2023-03-01T00:25:48;-3.20;99.90
7030;DHT22;3556;53.500;10.176;2023-03-01T00:28:14;-3.10;99.90
7030;DHT22;3556;53.500;10.176;2023-03-01T00:30:40;-3.20;99.90
7030;DHT22;3556;53.500;10.176;2023-03-01T00:33:05;-3.10;99.90
7030;DHT22;3556;53.500;10.176;2023-03-01T00:35:35;-3.10;99.90
7030;DHT22;3556;53.500;10.176;2023-03-01T00:38:01;-3.10;99.90
7030;DHT22;3556;53.500;10.176;2023-03-01T00:40:28;-3.10;99.90
7030;DHT22;3556;53.500;10.176;2023-03-01T00:42:54;-3.20;99.90
7030;DHT22;3556;53.500;10.176;2023-03-01T00:45:20;-3.20;99.90
7030;DHT22;3556;53.500;10.176;2023-03-01T00:47:46;-3.20;99.90
7030;DHT22;3556;53.500;10.176;2023-03-01T00:50:12;-3.20;99.90
7030;DHT22;3556;53.500;10.176;2023-03-01T00:52:38;-3.20;99.90
7030;DHT22;3556;53.500;10.176;2023-03-01T00:55:04;-3.30;99.90
7030;DHT22;3556;53.500;10.176;2023-03-01T00:57:31;-3.20;99.90
7030;DHT22;3556;53.500;10.176;2023-03-01T00:59:56;-3.30;99.90
7030;DHT22;3556;53.500;10.176;2023-03-01T01:02:22;-3.30;99.90
7030;DHT22;3556;53.500;10.176;2023-03-01T01:04:48;-3.30;99.90
7030;DHT22;3556;53.500;10.176;2023-03-01T01:07:14;-3.30;99.90
7030;DHT22;3556;53.500;10.176;2023-03-01T01:09:39;-3.30;99.90
7030;DHT22;3556;53.500;10.176;2023-03-01T01:12:06;-3.20;99.90
7030;DHT22;3556;53.500;10.176;2023-03-01T01:14:31;-3.30;99.90
7030;DHT22;3556;53.500;10.176;2023-03-01T01:16:57;-3.30;99.90
7030;DHT22;3556;53.500;10.176;2023-03-01T01:19:24;-3.30;99.90
7030;DHT22;3556;53.500;10.176;2023-03-01T01:21:50;-3.40;99.90
7030;DHT22;3556;53.500;10.176;2023-03-01T01:24:16;-3.40;99.90
7030;DHT22;3556;53.500;10.176;2023-03-01T01:26:42;-3.40;99.90
7030;DHT22;3556;53.500;10.176;2023-03-01T01:29:09;-3.40;99.90
7030;DHT22;3556;53.500;10.176;2023-03-01T01:31:36;-3.40;99.90
7030;DHT22;3556;53.500;10.176;2023-03-01T01:34:03;-3.40;99.90
7030;DHT22;3556;53.500;10.176;2023-03-01T01:36:29;-3.40;99.90
7030;DHT22;3556;53.500;10.176;2023-03-01T01:38:55;-3.40;99.90
7030;DHT22;3556;53.500;10.176;2023-03-01T01:41:22;-3.40;99.90
7030;DHT22;3556;53.500;10.176;2023-03-01T01:44:11;-3.40;99.90
7030;DHT22;3556;53.500;10.176;2023-03-01T01:46:40;-3.50;99.90
7030;DHT22;3556;53.500;10.176;2023-03-01T01:51:45;-3.40;99.90
7030;DHT22;3556;53.500;10.176;2023-03-01T01:54:41;-3.40;99.90
7030;DHT22;3556;53.500;10.176;2023-03-01T01:57:11;-3.50;99.90
7030;DHT22;3556;53.500;10.176;2023-03-01T01:59:38;-3.50;99.90
7030;DHT22;3556;53.500;10.176;2023-03-01T02:02:04;-3.50;99.90
7030;DHT22;3556;53.500;10.176;2023-03-01T02:04:31;-3.50;99.90
7030;DHT22;3556;53.500;10.176;2023-03-01T02:07:09;-3.50;99.90
7030;DHT22;3556;53.500;10.176;2023-03-01T02:09:37;-3.50;99.90
7030;DHT22;3556;53.500;10.176;2023-03-01T02:12:04;-3.50;99.90
7030;DHT22;3556;53.500;10.176;2023-03-01T02:14:30;-3.50;99.90
7030;DHT22;3556;53.500;10.176;2023-03-01T02:16:55;-3.50;99.90
7030;DHT22;3556;53.500;10.176;2023-03-01T02:19:36;-3.50;99.90
7030;DHT22;3556;53.500;10.176;2023-03-01T02:22:27;-3.50;99.90
7030;DHT22;3556;53.500;10.176;2023-03-01T02:30:46;-3.40;99.90
7030;DHT22;3556;53.500;10.176;2023-03-01T02:33:34;-3.40;99.90
7030;DHT22;3556;53.500;10.176;2023-03-01T02:36:04;-3.40;99.90
7030;DHT22;3556;53.500;10.176;2023-03-01T02:38:32;-3.40;99.90
7030;DHT22;3556;53.500;10.176;2023-03-01T02:40:58;-3.40;99.90
7030;DHT22;3556;53.500;10.176;2023-03-01T02:43:27;-3.30;99.90
7030;DHT22;3556;53.500;10.176;2023-03-01T02:45:57;-3.30;99.90
7030;DHT22;3556;53.500;10.176;2023-03-01T02:48:23;-3.30;99.90
7030;DHT22;3556;53.500;10.176;2023-03-01T02:50:55;-3.20;99.90
7030;DHT22;3556;53.500;10.176;2023-03-01T02:55:54;-3.10;99.90
7030;DHT22;3556;53.500;10.176;2023-03-01T02:58:19;-3.00;99.90
7030;DHT22;3556;53.500;10.176;2023-03-01T03:00:46;-2.90;99.90
7030;DHT22;3556;53.500;10.176;2023-03-01T03:03:15;-3.00;99.90
7030;DHT22;3556;53.500;10.176;2023-03-01T03:05:42;-2.90;99.90
7030;DHT22;3556;53.500;10.176;2023-03-01T03:08:07;-2.80;99.90
7030;DHT22;3556;53.500;10.176;2023-03-01T03:10:37;-2.80;99.90
7030;DHT22;3556;53.500;10.176;2023-03-01T03:13:14;-2.80;99.90
7030;DHT22;3556;53.500;10.176;2023-03-01T03:15:41;-2.70;99.90
7030;DHT22;3556;53.500;10.176;2023-03-01T03:18:10;-2.70;99.90
7030;DHT22;3556;53.500;10.176;2023-03-01T03:20:36;-2.60;99.90
7030;DHT22;3556;53.500;10.176;2023-03-01T03:23:02;-2.60;99.90
7030;DHT22;3556;53.500;10.176;2023-03-01T03:25:29;-2.50;99.90
7030;DHT22;3556;53.500;10.176;2023-03-01T03:27:55;-2.50;99.90
7030;DHT22;3556;53.500;10.176;2023-03-01T03:30:29;-2.40;99.90
7030;DHT22;3556;53.500;10.176;2023-03-01T03:32:56;-2.40;99.90
7030;DHT22;3556;53.500;10.176;2023-03-01T03:37:52;-2.30;99.90
7030;DHT22;3556;53.500;10.176;2023-03-01T03:40:29;-2.30;99.90
7030;DHT22;3556;53.500;10.176;2023-03-01T03:42:54;-2.20;99.90
7030;DHT22;3556;53.500;10.176;2023-03-01T03:45:20;-2.20;99.90
7030;DHT22;3556;53.500;10.176;2023-03-01T03:47:46;-2.10;99.90
7030;DHT22;3556;53.500;10.176;2023-03-01T03:50:13;-2.10;99.90
7030;DHT22;3556;53.500;10.176;2023-03-01T03:52:40;-2.00;99.90
7030;DHT22;3556;53.500;10.176;2023-03-01T03:55:08;-2.00;99.90
7030;DHT22;3556;53.500;10.176;2023-03-01T03:57:41;-2.00;99.90
7030;DHT22;3556;53.500;10.176;2023-03-01T04:00:10;-1.90;99.90
7030;DHT22;3556;53.500;10.176;2023-03-01T04:02:42;-1.90;99.90
7030;DHT22;3556;53.500;10.176;2023-03-01T04:05:09;-1.90;99.90
7030;DHT22;3556;53.500;10.176;2023-03-01T04:07:35;-1.80;99.90
7030;DHT22;3556;53.500;10.176;2023-03-01T04:10:06;-1.80;99.90
7030;DHT22;3556;53.500;10.176;2023-03-01T04:12:34;-1.80;99.90
7030;DHT22;3556;53.500;10.176;2023-03-01T04:15:04;-1.70;99.90
7030;DHT22;3556;53.500;10.176;2023-03-01T04:17:41;-1.70;99.90
7030;DHT22;3556;53.500;10.176;2023-03-01T04:20:13;-1.60;99.90
7030;DHT22;3556;53.500;10.176;2023-03-01T04:22:39;-1.60;99.90
7030;DHT22;3556;53.500;10.176;2023-03-01T04:25:06;-1.50;99.90
7030;DHT22;3556;53.500;10.176;2023-03-01T04:27:36;-1.50;99.90
7030;DHT22;3556;53.500;10.176;2023-03-01T04:30:02;-1.50;99.90
7030;DHT22;3556;53.500;10.176;2023-03-01T04:32:28;-1.50;99.90
7030;DHT22;3556;53.500;10.176;2023-03-01T04:34:54;-1.40;99.90
7030;DHT22;3556;53.500;10.176;2023-03-01T04:37:19;-1.40;99.90
7030;DHT22;3556;53.500;10.176;2023-03-01T04:39:45;-1.40;99.90
7030;DHT22;3556;53.500;10.176;2023-03-01T04:42:13;-1.30;99.90
7030;DHT22;3556;53.500;10.176;2023-03-01T04:44:39;-1.30;99.90
7030;DHT22;3556;53.500;10.176;2023-03-01T04:47:04;-1.20;99.90
7030;DHT22;3556;53.500;10.176;2023-03-01T04:49:30;-1.20;99.90
7030;DHT22;3556;53.500;10.176;2023-03-01T04:51:56;-1.20;99.90
7030;DHT22;3556;53.500;10.176;2023-03-01T04:54:36;-1.10;99.90
7030;DHT22;3556;53.500;10.176;2023-03-01T04:57:02;-1.10;99.90
7030;DHT22;3556;53.500;10.176;2023-03-01T04:59:29;-1.10;99.90
7030;DHT22;3556;53.500;10.176;2023-03-01T05:01:55;-1.00;99.90
7030;DHT22;3556;53.500;10.176;2023-03-01T05:04:22;-1.00;99.90
7030;DHT22;3556;53.500;10.176;2023-03-01T05:06:48;-1.00;99.90
7030;DHT22;3556;53.500;10.176;2023-03-01T05:09:13;-1.00;99.90
7030;DHT22;3556;53.500;10.176;2023-03-01T05:11:39;-0.90;99.90
7030;DHT22;3556;53.500;10.176;2023-03-01T05:14:05;-0.90;99.90
7030;DHT22;3556;53.500;10.176;2023-03-01T05:16:32;-0.90;99.90
7030;DHT22;3556;53.500;10.176;2023-03-01T05:18:58;-0.90;99.90
7030;DHT22;3556;53.500;10.176;2023-03-01T05:21:24;-0.80;99.90
7030;DHT22;3556;53.500;10.176;2023-03-01T05:23:50;-0.80;99.90
7030;DHT22;3556;53.500;10.176;2023-03-01T05:26:18;-0.70;99.90
7030;DHT22;3556;53.500;10.176;2023-03-01T05:28:44;-0.70;99.90
7030;DHT22;3556;53.500;10.176;2023-03-01T05:31:10;-0.70;99.90
7030;DHT22;3556;53.500;10.176;2023-03-01T05:33:40;-0.70;99.90
7030;DHT22;3556;53.500;10.176;2023-03-01T05:36:09;-0.60;99.90
7030;DHT22;3556;53.500;10.176;2023-03-01T05:38:35;-0.60;99.90
7030;DHT22;3556;53.500;10.176;2023-03-01T05:41:01;-0.60;99.90
7030;DHT22;3556;53.500;10.176;2023-03-01T05:43:30;-0.60;99.90
7030;DHT22;3556;53.500;10.176;2023-03-01T05:45:59;-0.60;99.90
7030;DHT22;3556;53.500;10.176;2023-03-01T05:48:25;-0.50;99.90
7030;DHT22;3556;53.500;10.176;2023-03-01T05:50:51;-0.50;99.90
7030;DHT22;3556;53.500;10.176;2023-03-01T05:53:18;-0.50;99.90
7030;DHT22;3556;53.500;10.176;2023-03-01T05:55:48;-0.50;99.90
7030;DHT22;3556;53.500;10.176;2023-03-01T05:58:17;-0.40;99.90
7030;DHT22;3556;53.500;10.176;2023-03-01T06:00:46;-0.40;99.90
7030;DHT22;3556;53.500;10.176;2023-03-01T06:03:14;-0.40;99.90
7030;DHT22;3556;53.500;10.176;2023-03-01T06:05:41;-0.40;99.90
7030;DHT22;3556;53.500;10.176;2023-03-01T06:08:09;-0.40;99.90
7030;DHT22;3556;53.500;10.176;2023-03-01T06:10:35;-0.40;99.90
7030;DHT22;3556;53.500;10.176;2023-03-01T06:13:01;-0.40;99.90
7030;DHT22;3556;53.500;10.176;2023-03-01T06:15:26;-0.40;99.90
7030;DHT22;3556;53.500;10.176;2023-03-01T06:17:54;-0.30;99.90
7030;DHT22;3556;53.500;10.176;2023-03-01T06:20:23;-0.30;99.90
7030;DHT22;3556;53.500;10.176;2023-03-01T06:22:49;-0.30;99.90
7030;DHT22;3556;53.500;10.176;2023-03-01T06:25:18;-0.30;99.90
7030;DHT22;3556;53.500;10.176;2023-03-01T06:27:44;-0.20;99.90
7030;DHT22;3556;53.500;10.176;2023-03-01T06:30:14;-0.20;99.90
7030;DHT22;3556;53.500;10.176;2023-03-01T06:32:40;-0.20;99.90
7030;DHT22;3556;53.500;10.176;2023-03-01T06:35:12;-0.20;99.90
7030;DHT22;3556;53.500;10.176;2023-03-01T06:37:39;-0.10;99.90
7030;DHT22;3556;53.500;10.176;2023-03-01T06:40:05;-0.10;99.90
7030;DHT22;3556;53.500;10.176;2023-03-01T06:42:38;-0.10;99.90
7030;DHT22;3556;53.500;10.176;2023-03-01T06:45:05;0.00;99.90
7030;DHT22;3556;53.500;10.176;2023-03-01T06:47:32;0.00;99.90
7030;DHT22;3556;53.500;10.176;2023-03-01T06:49:59;0.00;99.90
7030;DHT22;3556;53.500;10.176;2023-03-01T06:52:24;0.10;99.90
7030;DHT22;3556;53.500;10.176;2023-03-01T06:54:50;0.10;99.90
7030;DHT22;3556;53.500;10.176;2023-03-01T06:57:16;0.10;99.90
7030;DHT22;3556;53.500;10.176;2023-03-01T06:59:42;0.20;99.90
7030;DHT22;3556;53.500;10.176;2023-03-01T07:02:10;0.20;99.90
7030;DHT22;3556;53.500;10.176;2023-03-01T07:04:37;0.30;99.90
7030;DHT22;3556;53.500;10.176;2023-03-01T07:07:02;0.30;99.90
7030;DHT22;3556;53.500;10.176;2023-03-01T07:09:28;0.40;99.90
7030;DHT22;3556;53.500;10.176;2023-03-01T07:11:54;0.40;99.90
7030;DHT22;3556;53.500;10.176;2023-03-01T07:14:19;0.40;99.90
7030;DHT22;3556;53.500;10.176;2023-03-01T07:16:45;0.50;99.90
7030;DHT22;3556;53.500;10.176;2023-03-01T07:19:11;0.60;99.90
7030;DHT22;3556;53.500;10.176;2023-03-01T07:21:37;0.60;99.90
7030;DHT22;3556;53.500;10.176;2023-03-01T07:24:07;0.70;99.90
7030;DHT22;3556;53.500;10.176;2023-03-01T07:26:33;0.70;99.90
7030;DHT22;3556;53.500;10.176;2023-03-01T07:28:59;0.80;99.90
7030;DHT22;3556;53.500;10.176;2023-03-01T07:31:25;0.90;99.90
7030;DHT22;3556;53.500;10.176;2023-03-01T07:33:56;0.90;99.90
7030;DHT22;3556;53.500;10.176;2023-03-01T07:36:22;1.00;99.90
7030;DHT22;3556;53.500;10.176;2023-03-01T07:38:48;1.10;99.90
7030;DHT22;3556;53.500;10.176;2023-03-01T07:41:14;1.10;99.90
7030;DHT22;3556;53.500;10.176;2023-03-01T07:43:40;1.20;99.90
7030;DHT22;3556;53.500;10.176;2023-03-01T07:46:05;1.20;99.90
7030;DHT22;3556;53.500;10.176;2023-03-01T07:48:32;1.20;99.90
7030;DHT22;3556;53.500;10.176;2023-03-01T07:51:03;1.20;99.90
7030;DHT22;3556;53.500;10.176;2023-03-01T07:53:30;1.30;99.90
7030;DHT22;3556;53.500;10.176;2023-03-01T07:56:05;1.30;99.90
7030;DHT22;3556;53.500;10.176;2023-03-01T07:58:30;1.40;99.90
7030;DHT22;3556;53.500;10.176;2023-03-01T08:00:57;1.40;99.90
7030;DHT22;3556;53.500;10.176;2023-03-01T08:03:25;1.50;99.90
7030;DHT22;3556;53.500;10.176;2023-03-01T08:05:51;1.50;99.90
7030;DHT22;3556;53.500;10.176;2023-03-01T08:08:17;1.60;99.90
7030;DHT22;3556;53.500;10.176;2023-03-01T08:10:42;1.60;99.90
7030;DHT22;3556;53.500;10.176;2023-03-01T08:13:08;1.70;99.90
7030;DHT22;3556;53.500;10.176;2023-03-01T08:15:33;1.70;99.90
7030;DHT22;3556;53.500;10.176;2023-03-01T08:17:59;1.80;99.90
7030;DHT22;3556;53.500;10.176;2023-03-01T08:20:24;1.90;99.90
7030;DHT22;3556;53.500;10.176;2023-03-01T08:22:50;2.00;99.90
7030;DHT22;3556;53.500;10.176;2023-03-01T08:25:16;2.10;99.90
7030;DHT22;3556;53.500;10.176;2023-03-01T08:27:41;2.10;99.90
7030;DHT22;3556;53.500;10.176;2023-03-01T08:30:08;2.20;99.90
7030;DHT22;3556;53.500;10.176;2023-03-01T08:32:38;2.20;99.90
7030;DHT22;3556;53.500;10.176;2023-03-01T08:35:04;2.40;99.90
7030;DHT22;3556;53.500;10.176;2023-03-01T08:37:30;2.40;99.90
7030;DHT22;3556;53.500;10.176;2023-03-01T08:40:01;2.60;99.90
7030;DHT22;3556;53.500;10.176;2023-03-01T08:42:29;2.70;99.90
7030;DHT22;3556;53.500;10.176;2023-03-01T08:44:54;2.70;99.90
7030;DHT22;3556;53.500;10.176;2023-03-01T08:47:20;2.80;99.90
7030;DHT22;3556;53.500;10.176;2023-03-01T08:49:45;2.90;99.90
7030;DHT22;3556;53.500;10.176;2023-03-01T08:52:11;2.90;99.90
7030;DHT22;3556;53.500;10.176;2023-03-01T08:54:37;3.00;99.90
7030;DHT22;3556;53.500;10.176;2023-03-01T08:57:02;3.10;99.90
7030;DHT22;3556;53.500;10.176;2023-03-01T08:59:28;3.30;99.90
7030;DHT22;3556;53.500;10.176;2023-03-01T09:01:55;3.30;99.90
7030;DHT22;3556;53.500;10.176;2023-03-01T09:04:21;3.30;99.90
7030;DHT22;3556;53.500;10.176;2023-03-01T09:06:46;3.40;99.90
7030;DHT22;3556;53.500;10.176;2023-03-01T09:09:16;3.50;99.90
7030;DHT22;3556;53.500;10.176;2023-03-01T09:11:44;3.70;99.90
7030;DHT22;3556;53.500;10.176;2023-03-01T09:14:12;3.80;99.90
7030;DHT22;3556;53.500;10.176;2023-03-01T09:16:37;4.00;99.90
7030;DHT22;3556;53.500;10.176;2023-03-01T09:19:04;4.10;99.90
7030;DHT22;3556;53.500;10.176;2023-03-01T09:21:29;4.20;99.90
7030;DHT22;3556;53.500;10.176;2023-03-01T09:23:56;4.30;99.90
7030;DHT22;3556;53.500;10.176;2023-03-01T09:26:22;4.40;99.90
7030;DHT22;3556;53.500;10.176;2023-03-01T09:28:50;4.50;99.90
7030;DHT22;3556;53.500;10.176;2023-03-01T09:31:18;4.70;99.90
7030;DHT22;3556;53.500;10.176;2023-03-01T09:33:46;4.90;99.90
7030;DHT22;3556;53.500;10.176;2023-03-01T09:36:14;5.10;99.90
7030;DHT22;3556;53.500;10.176;2023-03-01T09:38:40;5.20;99.90
7030;DHT22;3556;53.500;10.176;2023-03-01T09:41:46;5.40;99.90
7030;DHT22;3556;53.500;10.176;2023-03-01T09:44:27;5.60;99.90
7030;DHT22;3556;53.500;10.176;2023-03-01T09:46:55;5.80;99.90
7030;DHT22;3556;53.500;10.176;2023-03-01T09:49:25;5.90;99.90
7030;DHT22;3556;53.500;10.176;2023-03-01T09:54:21;6.30;99.90
7030;DHT22;3556;53.500;10.176;2023-03-01T09:59:37;6.70;99.90
7030;DHT22;3556;53.500;10.176;2023-03-01T10:05:38;6.80;99.90
7030;DHT22;3556;53.500;10.176;2023-03-01T10:10:55;7.00;99.90
7030;DHT22;3556;53.500;10.176;2023-03-01T10:13:45;7.30;99.90
7030;DHT22;3556;53.500;10.176;2023-03-01T10:16:43;7.40;99.90
7030;DHT22;3556;53.500;10.176;2023-03-01T10:19:23;7.70;99.90
7030;DHT22;3556;53.500;10.176;2023-03-01T10:21:50;7.90;99.90
7030;DHT22;3556;53.500;10.176;2023-03-01T10:24:18;8.00;99.90
7030;DHT22;3556;53.500;10.176;2023-03-01T10:26:55;8.10;99.90
7030;DHT22;3556;53.500;10.176;2023-03-01T10:29:34;8.40;99.90
7030;DHT22;3556;53.500;10.176;2023-03-01T10:32:03;8.60;99.90
7030;DHT22;3556;53.500;10.176;2023-03-01T10:34:33;8.90;99.90
7030;DHT22;3556;53.500;10.176;2023-03-01T10:39:37;9.00;99.90
7030;DHT22;3556;53.500;10.176;2023-03-01T10:42:27;9.00;99.90
7030;DHT22;3556;53.500;10.176;2023-03-01T10:44:53;9.00;99.90
7030;DHT22;3556;53.500;10.176;2023-03-01T10:47:23;8.90;99.90
7030;DHT22;3556;53.500;10.176;2023-03-01T10:50:38;8.90;99.90
7030;DHT22;3556;53.500;10.176;2023-03-01T10:52:41;8.80;99.90
7030;DHT22;3556;53.500;10.176;2023-03-01T10:57:39;9.10;99.90
7030;DHT22;3556;53.500;10.176;2023-03-01T11:03:13;9.20;99.90
7030;DHT22;3556;53.500;10.176;2023-03-01T11:11:22;9.60;99.90
7030;DHT22;3556;53.500;10.176;2023-03-01T11:14:03;9.80;99.90
7030;DHT22;3556;53.500;10.176;2023-03-01T11:16:38;10.00;99.90
7030;DHT22;3556;53.500;10.176;2023-03-01T11:22:00;10.50;99.90
7030;DHT22;3556;53.500;10.176;2023-03-01T11:24:39;10.70;99.90
7030;DHT22;3556;53.500;10.176;2023-03-01T11:27:17;11.10;99.90
7030;DHT22;3556;53.500;10.176;2023-03-01T11:29:48;11.20;99.90
7030;DHT22;3556;53.500;10.176;2023-03-01T11:32:18;11.40;99.90
7030;DHT22;3556;53.500;10.176;2023-03-01T11:40:13;11.20;99.90
7030;DHT22;3556;53.500;10.176;2023-03-01T11:45:47;11.70;99.50
7030;DHT22;3556;53.500;10.176;2023-03-01T11:54:55;12.30;98.50
7030;DHT22;3556;53.500;10.176;2023-03-01T12:05:53;13.20;96.70
7030;DHT22;3556;53.500;10.176;2023-03-01T12:08:32;13.20;98.10
7030;DHT22;3556;53.500;10.176;2023-03-01T12:11:03;13.30;98.10
7030;DHT22;3556;53.500;10.176;2023-03-01T12:13:56;13.40;96.70
7030;DHT22;3556;53.500;10.176;2023-03-01T12:19:36;14.10;95.50
7030;DHT22;3556;53.500;10.176;2023-03-01T12:33:49;16.30;93.60
7030;DHT22;3556;53.500;10.176;2023-03-01T12:49:26;17.40;83.60
7030;DHT22;3556;53.500;10.176;2023-03-01T12:52:00;17.20;82.50
7030;DHT22;3556;53.500;10.176;2023-03-01T12:54:30;17.70;87.60
7030;DHT22;3556;53.500;10.176;2023-03-01T12:57:02;17.80;78.60
7030;DHT22;3556;53.500;10.176;2023-03-01T12:59:34;18.10;80.40
7030;DHT22;3556;53.500;10.176;2023-03-01T13:10:06;18.30;74.00
7030;DHT22;3556;53.500;10.176;2023-03-01T13:17:52;19.50;67.00
7030;DHT22;3556;53.500;10.176;2023-03-01T13:20:27;19.00;69.60
7030;DHT22;3556;53.500;10.176;2023-03-01T13:33:47;20.30;58.00
7030;DHT22;3556;53.500;10.176;2023-03-01T13:39:27;20.40;57.80
7030;DHT22;3556;53.500;10.176;2023-03-01T13:41:54;20.60;56.90
7030;DHT22;3556;53.500;10.176;2023-03-01T13:46:51;21.10;58.40
7030;DHT22;3556;53.500;10.176;2023-03-01T13:49:23;21.00;55.60
7030;DHT22;3556;53.500;10.176;2023-03-01T13:51:51;21.00;57.20
7030;DHT22;3556;53.500;10.176;2023-03-01T13:54:32;21.30;57.00
7030;DHT22;3556;53.500;10.176;2023-03-01T13:57:00;21.60;58.50
7030;DHT22;3556;53.500;10.176;2023-03-01T13:59:26;21.80;52.70
7030;DHT22;3556;53.500;10.176;2023-03-01T14:01:57;21.60;55.40
7030;DHT22;3556;53.500;10.176;2023-03-01T14:04:26;21.40;50.70
7030;DHT22;3556;53.500;10.176;2023-03-01T14:07:18;20.90;53.00
7030;DHT22;3556;53.500;10.176;2023-03-01T14:09:47;20.80;52.20
7030;DHT22;3556;53.500;10.176;2023-03-01T14:14:56;20.70;50.90
7030;DHT22;3556;53.500;10.176;2023-03-01T14:20:25;20.70;51.10
7030;DHT22;3556;53.500;10.176;2023-03-01T14:22:54;20.50;51.20
7030;DHT22;3556;53.500;10.176;2023-03-01T14:28:23;20.50;53.90
7030;DHT22;3556;53.500;10.176;2023-03-01T14:30:52;20.80;53.40
7030;DHT22;3556;53.500;10.176;2023-03-01T14:33:30;21.10;53.90
7030;DHT22;3556;53.500;10.176;2023-03-01T14:36:10;20.90;49.00
7030;DHT22;3556;53.500;10.176;2023-03-01T14:41:33;20.50;53.20
7030;DHT22;3556;53.500;10.176;2023-03-01T14:46:30;21.20;48.10
7030;DHT22;3556;53.500;10.176;2023-03-01T14:49:17;20.90;47.70
7030;DHT22;3556;53.500;10.176;2023-03-01T14:52:05;20.90;50.60
7030;DHT22;3556;53.500;10.176;2023-03-01T14:54:51;21.10;48.50
7030;DHT22;3556;53.500;10.176;2023-03-01T14:57:23;21.00;48.50
7030;DHT22;3556;53.500;10.176;2023-03-01T14:59:52;21.00;49.00
7030;DHT22;3556;53.500;10.176;2023-03-01T15:02:21;21.00;47.50
7030;DHT22;3556;53.500;10.176;2023-03-01T15:04:57;20.90;48.00
7030;DHT22;3556;53.500;10.176;2023-03-01T15:07:31;21.00;46.90
7030;DHT22;3556;53.500;10.176;2023-03-01T15:09:58;20.90;48.20
7030;DHT22;3556;53.500;10.176;2023-03-01T15:14:53;20.90;46.60
7030;DHT22;3556;53.500;10.176;2023-03-01T15:17:31;21.00;45.80
7030;DHT22;3556;53.500;10.176;2023-03-01T15:19:57;20.90;46.40
7030;DHT22;3556;53.500;10.176;2023-03-01T15:22:26;20.80;44.70
7030;DHT22;3556;53.500;10.176;2023-03-01T15:24:51;20.60;46.50
7030;DHT22;3556;53.500;10.176;2023-03-01T15:27:19;20.40;45.00
7030;DHT22;3556;53.500;10.176;2023-03-01T15:29:55;19.80;45.40
7030;DHT22;3556;53.500;10.176;2023-03-01T15:32:34;19.10;45.60
7030;DHT22;3556;53.500;10.176;2023-03-01T15:35:39;18.50;47.50
7030;DHT22;3556;53.500;10.176;2023-03-01T15:41:00;17.90;48.00
7030;DHT22;3556;53.500;10.176;2023-03-01T15:43:46;18.00;47.30
7030;DHT22;3556;53.500;10.176;2023-03-01T15:46:18;18.10;47.00
7030;DHT22;3556;53.500;10.176;2023-03-01T15:48:50;17.70;46.70
7030;DHT22;3556;53.500;10.176;2023-03-01T15:51:21;17.20;48.50
7030;DHT22;3556;53.500;10.176;2023-03-01T15:53:52;15.70;50.10
7030;DHT22;3556;53.500;10.176;2023-03-01T15:56:18;14.60;50.90
7030;DHT22;3556;53.500;10.176;2023-03-01T15:58:44;14.00;52.40
7030;DHT22;3556;53.500;10.176;2023-03-01T16:01:14;13.40;54.50
7030;DHT22;3556;53.500;10.176;2023-03-01T16:03:42;12.70;56.00
7030;DHT22;3556;53.500;10.176;2023-03-01T16:06:09;12.10;59.10
7030;DHT22;3556;53.500;10.176;2023-03-01T16:08:36;11.90;59.10
7030;DHT22;3556;53.500;10.176;2023-03-01T16:11:04;11.70;60.10
7030;DHT22;3556;53.500;10.176;2023-03-01T16:13:31;11.50;61.90
7030;DHT22;3556;53.500;10.176;2023-03-01T16:15:58;11.20;61.60
7030;DHT22;3556;53.500;10.176;2023-03-01T16:18:23;10.90;63.60
7030;DHT22;3556;53.500;10.176;2023-03-01T16:20:49;10.60;65.30
7030;DHT22;3556;53.500;10.176;2023-03-01T16:23:15;10.30;68.50
7030;DHT22;3556;53.500;10.176;2023-03-01T16:25:41;10.20;69.50
7030;DHT22;3556;53.500;10.176;2023-03-01T16:28:07;9.90;73.10
7030;DHT22;3556;53.500;10.176;2023-03-01T16:30:36;9.80;74.40
7030;DHT22;3556;53.500;10.176;2023-03-01T16:33:02;9.70;78.30
7030;DHT22;3556;53.500;10.176;2023-03-01T16:35:32;9.50;78.10
7030;DHT22;3556;53.500;10.176;2023-03-01T16:37:59;9.40;79.10
7030;DHT22;3556;53.500;10.176;2023-03-01T16:40:27;9.30;81.40
7030;DHT22;3556;53.500;10.176;2023-03-01T16:42:54;9.30;82.30
7030;DHT22;3556;53.500;10.176;2023-03-01T16:45:21;9.10;85.20
7030;DHT22;3556;53.500;10.176;2023-03-01T16:47:46;8.90;85.60
7030;DHT22;3556;53.500;10.176;2023-03-01T16:50:12;8.80;88.10
7030;DHT22;3556;53.500;10.176;2023-03-01T16:52:37;8.70;89.20
7030;DHT22;3556;53.500;10.176;2023-03-01T16:55:04;8.50;90.40
7030;DHT22;3556;53.500;10.176;2023-03-01T16:57:31;8.30;92.10
7030;DHT22;3556;53.500;10.176;2023-03-01T16:59:58;8.10;95.00
7030;DHT22;3556;53.500;10.176;2023-03-01T17:02:24;8.00;94.90
7030;DHT22;3556;53.500;10.176;2023-03-01T17:04:54;7.80;96.50
7030;DHT22;3556;53.500;10.176;2023-03-01T17:07:20;7.70;97.10
7030;DHT22;3556;53.500;10.176;2023-03-01T17:09:46;7.50;99.40
7030;DHT22;3556;53.500;10.176;2023-03-01T17:12:12;7.40;99.90
7030;DHT22;3556;53.500;10.176;2023-03-01T17:14:38;7.20;99.90
7030;DHT22;3556;53.500;10.176;2023-03-01T17:17:07;7.00;99.90
7030;DHT22;3556;53.500;10.176;2023-03-01T17:19:32;6.80;99.90
7030;DHT22;3556;53.500;10.176;2023-03-01T17:22:01;6.60;99.90
7030;DHT22;3556;53.500;10.176;2023-03-01T17:24:27;6.40;99.90
7030;DHT22;3556;53.500;10.176;2023-03-01T17:26:54;6.30;99.90
7030;DHT22;3556;53.500;10.176;2023-03-01T17:29:20;6.20;99.90
7030;DHT22;3556;53.500;10.176;2023-03-01T17:31:45;6.20;99.90
7030;DHT22;3556;53.500;10.176;2023-03-01T17:34:11;6.20;99.90
7030;DHT22;3556;53.500;10.176;2023-03-01T17:36:37;6.10;99.90
7030;DHT22;3556;53.500;10.176;2023-03-01T17:39:09;6.00;99.90
7030;DHT22;3556;53.500;10.176;2023-03-01T17:41:35;5.90;99.90
7030;DHT22;3556;53.500;10.176;2023-03-01T17:44:01;5.70;99.90
7030;DHT22;3556;53.500;10.176;2023-03-01T17:46:26;5.60;99.90
7030;DHT22;3556;53.500;10.176;2023-03-01T17:48:52;5.50;99.90
7030;DHT22;3556;53.500;10.176;2023-03-01T17:51:18;5.40;99.90
7030;DHT22;3556;53.500;10.176;2023-03-01T17:53:43;5.40;99.90
7030;DHT22;3556;53.500;10.176;2023-03-01T17:56:09;5.30;99.90
7030;DHT22;3556;53.500;10.176;2023-03-01T17:58:36;5.10;99.90
7030;DHT22;3556;53.500;10.176;2023-03-01T18:01:21;5.00;99.90
7030;DHT22;3556;53.500;10.176;2023-03-01T18:03:50;5.00;99.90
7030;DHT22;3556;53.500;10.176;2023-03-01T18:06:24;4.80;99.90
7030;DHT22;3556;53.500;10.176;2023-03-01T18:08:51;4.70;99.90
7030;DHT22;3556;53.500;10.176;2023-03-01T18:11:18;4.60;99.90
7030;DHT22;3556;53.500;10.176;2023-03-01T18:13:44;4.50;99.90
7030;DHT22;3556;53.500;10.176;2023-03-01T18:16:13;4.50;99.90
7030;DHT22;3556;53.500;10.176;2023-03-01T18:18:40;4.30;99.90
7030;DHT22;3556;53.500;10.176;2023-03-01T18:21:05;4.20;99.90
7030;DHT22;3556;53.500;10.176;2023-03-01T18:23:32;4.10;99.90
7030;DHT22;3556;53.500;10.176;2023-03-01T18:26:03;4.00;99.90